createdAt,value
2017-05-31T00:00:14.582Z,70
2017-05-31T00:01:15.556Z,71
2017-05-31T00:02:16.283Z,71
2017-05-31T00:03:17.003Z,70
2017-05-31T00:04:17.730Z,70
2017-05-31T00:05:18.453Z,70
2017-05-31T00:06:19.430Z,71
2017-05-31T00:07:20.179Z,71
2017-05-31T00:08:20.902Z,71
2017-05-31T00:09:21.628Z,71
2017-05-31T00:10:22.350Z,70
2017-05-31T00:11:23.323Z,71
2017-05-31T00:12:24.046Z,71
2017-05-31T00:13:24.769Z,70
2017-05-31T00:14:25.496Z,71
2017-05-31T00:15:26.220Z,71
2017-05-31T00:16:27.193Z,71
2017-05-31T00:17:27.919Z,71
2017-05-31T00:18:28.643Z,71
2017-05-31T00:19:29.394Z,71
2017-05-31T00:20:30.116Z,71
2017-05-31T00:21:31.116Z,71
2017-05-31T00:22:31.840Z,72
2017-05-31T00:23:32.589Z,71
2017-05-31T00:24:33.334Z,72
2017-05-31T00:25:34.059Z,72
2017-05-31T00:26:35.031Z,72
2017-05-31T00:27:35.755Z,72
2017-05-31T00:28:36.479Z,72
2017-05-31T00:29:37.201Z,72
2017-05-31T00:30:37.925Z,72
2017-05-31T00:31:38.902Z,72
2017-05-31T00:32:39.625Z,72
2017-05-31T00:33:40.351Z,72
2017-05-31T00:34:41.072Z,72
2017-05-31T00:35:41.793Z,72
2017-05-31T00:36:42.793Z,73
2017-05-31T00:37:43.515Z,72
2017-05-31T00:38:44.241Z,73
2017-05-31T00:39:44.966Z,73
2017-05-31T00:40:45.714Z,73
2017-05-31T00:41:46.690Z,73
2017-05-31T00:42:47.415Z,73
2017-05-31T00:43:48.140Z,74
2017-05-31T00:44:48.862Z,73
2017-05-31T00:45:49.586Z,73
2017-05-31T00:46:50.561Z,73
2017-05-31T00:47:51.288Z,74
2017-05-31T00:48:52.013Z,74
2017-05-31T00:49:52.760Z,73
2017-05-31T00:50:53.482Z,74
2017-05-31T00:51:54.455Z,74
2017-05-31T00:52:55.181Z,74
2017-05-31T00:53:55.904Z,74
2017-05-31T00:54:56.631Z,74
2017-05-31T00:56:58.228Z,74
2017-05-31T00:57:58.956Z,74
2017-05-31T00:58:59.679Z,74
2017-05-31T01:00:00.405Z,75
2017-05-31T01:01:01.130Z,74
2017-05-31T01:02:02.105Z,75
2017-05-31T01:03:02.852Z,75
2017-05-31T01:04:03.603Z,75
2017-05-31T01:05:04.328Z,74
2017-05-31T01:06:05.057Z,74
2017-05-31T01:07:06.061Z,75
2017-05-31T01:08:06.785Z,75
2017-05-31T01:09:07.511Z,75
2017-05-31T01:10:08.262Z,75
2017-05-31T01:11:08.990Z,75
2017-05-31T01:12:09.966Z,75
2017-05-31T01:13:10.698Z,75
2017-05-31T01:14:11.421Z,75
2017-05-31T01:15:12.141Z,75
2017-05-31T01:16:12.865Z,75
2017-05-31T01:17:13.842Z,75
2017-05-31T01:18:14.569Z,75
2017-05-31T01:19:15.293Z,75
2017-05-31T01:20:16.019Z,75
2017-05-31T01:21:16.742Z,76
2017-05-31T01:22:17.717Z,75
2017-05-31T01:23:18.441Z,75
2017-05-31T01:24:19.165Z,75
2017-05-31T01:25:19.889Z,75
2017-05-31T01:26:20.617Z,76
2017-05-31T01:27:21.592Z,76
2017-05-31T01:28:22.318Z,75
2017-05-31T01:29:23.068Z,76
2017-05-31T01:30:23.795Z,76
2017-05-31T01:31:24.518Z,76
2017-05-31T01:32:25.502Z,76
2017-05-31T01:33:26.224Z,76
2017-05-31T01:34:26.970Z,76
2017-05-31T01:35:27.698Z,76
2017-05-31T01:36:28.424Z,76
2017-05-31T01:37:29.398Z,76
2017-05-31T01:38:30.121Z,77
2017-05-31T01:39:30.849Z,76
2017-05-31T01:40:31.572Z,77
2017-05-31T01:41:32.297Z,76
2017-05-31T01:42:33.274Z,76
2017-05-31T01:43:34.002Z,77
2017-05-31T01:44:34.725Z,77
2017-05-31T01:45:35.450Z,77
2017-05-31T01:46:36.173Z,77
2017-05-31T01:47:37.151Z,77
2017-05-31T01:48:37.874Z,77
2017-05-31T01:49:38.625Z,77
2017-05-31T01:50:39.377Z,77
2017-05-31T01:51:40.101Z,77
2017-05-31T01:52:41.075Z,77
2017-05-31T01:53:41.803Z,77
2017-05-31T01:54:42.523Z,77
2017-05-31T01:55:43.247Z,77
2017-05-31T01:56:43.975Z,77
2017-05-31T01:57:44.951Z,77
2017-05-31T01:58:45.678Z,77
2017-05-31T01:59:46.403Z,78
2017-05-31T02:00:47.154Z,78
2017-05-31T02:01:47.877Z,78
2017-05-31T02:02:48.852Z,78
2017-05-31T02:03:49.578Z,78
2017-05-31T02:04:50.305Z,78
2017-05-31T02:05:51.027Z,78
2017-05-31T02:06:51.776Z,78
2017-05-31T02:07:52.751Z,77
2017-05-31T02:08:53.476Z,78
2017-05-31T02:09:54.200Z,78
2017-05-31T02:10:54.923Z,78
2017-05-31T02:11:55.648Z,78
2017-05-31T02:12:56.624Z,77
2017-05-31T02:13:57.351Z,77
2017-05-31T02:14:58.076Z,77
2017-05-31T02:15:58.800Z,78
2017-05-31T02:16:59.524Z,78
2017-05-31T02:18:00.498Z,78
2017-05-31T02:19:01.225Z,78
2017-05-31T02:20:01.953Z,78
2017-05-31T02:21:02.676Z,78
2017-05-31T02:22:03.422Z,78
2017-05-31T02:23:04.396Z,78
2017-05-31T02:24:05.123Z,78
2017-05-31T02:25:05.846Z,78
2017-05-31T02:26:06.568Z,78
2017-05-31T02:27:07.293Z,78
2017-05-31T02:28:08.266Z,78
2017-05-31T02:29:08.993Z,78
2017-05-31T02:30:09.716Z,78
2017-05-31T02:31:10.468Z,78
2017-05-31T02:32:11.192Z,78
2017-05-31T02:33:12.169Z,78
2017-05-31T02:34:12.893Z,79
2017-05-31T02:35:13.644Z,78
2017-05-31T02:36:14.371Z,79
2017-05-31T02:37:15.093Z,78
2017-05-31T02:38:16.065Z,78
2017-05-31T02:39:16.825Z,78
2017-05-31T02:40:17.561Z,78
2017-05-31T02:41:18.285Z,79
2017-05-31T02:42:19.013Z,78
2017-05-31T02:43:19.989Z,78
2017-05-31T02:44:20.715Z,78
2017-05-31T02:45:21.440Z,78
2017-05-31T02:46:22.166Z,78
2017-05-31T02:47:22.889Z,78
2017-05-31T02:48:23.866Z,78
2017-05-31T02:49:24.592Z,78
2017-05-31T02:50:25.315Z,78
2017-05-31T02:51:26.038Z,78
2017-05-31T02:52:26.763Z,78
2017-05-31T02:53:27.764Z,78
2017-05-31T02:54:28.488Z,78
2017-05-31T02:55:29.215Z,78
2017-05-31T02:56:29.944Z,78
2017-05-31T02:57:30.667Z,78
2017-05-31T02:58:31.644Z,77
2017-05-31T02:59:32.373Z,78
2017-05-31T03:00:33.097Z,78
2017-05-31T03:01:33.821Z,78
2017-05-31T03:02:34.571Z,78
2017-05-31T03:03:35.550Z,78
2017-05-31T03:04:36.276Z,78
2017-05-31T03:05:37.027Z,78
2017-05-31T03:06:37.752Z,78
2017-05-31T03:07:38.481Z,79
2017-05-31T03:08:39.456Z,79
2017-05-31T03:09:40.182Z,79
2017-05-31T03:10:40.909Z,79
2017-05-31T03:11:41.638Z,79
2017-05-31T03:12:42.366Z,79
2017-05-31T03:13:43.342Z,79
2017-05-31T03:14:44.067Z,79
2017-05-31T03:15:44.796Z,79
2017-05-31T03:16:45.523Z,79
2017-05-31T03:17:46.252Z,78
2017-05-31T03:18:47.227Z,79
2017-05-31T03:19:47.951Z,79
2017-05-31T03:20:48.679Z,79
2017-05-31T03:21:49.407Z,79
2017-05-31T03:22:50.135Z,78
2017-05-31T03:23:51.110Z,79
2017-05-31T03:24:51.838Z,79
2017-05-31T03:25:52.565Z,78
2017-05-31T03:26:53.294Z,79
2017-05-31T03:27:54.022Z,79
2017-05-31T03:28:55.002Z,79
2017-05-31T03:29:55.732Z,79
2017-05-31T03:30:56.460Z,79
2017-05-31T03:31:57.187Z,79
2017-05-31T03:32:57.939Z,79
2017-05-31T03:33:58.918Z,79
2017-05-31T03:34:59.648Z,79
2017-05-31T03:36:00.375Z,79
2017-05-31T03:37:01.106Z,80
2017-05-31T03:38:01.834Z,79
2017-05-31T03:39:02.810Z,79
2017-05-31T03:40:03.537Z,79
2017-05-31T03:41:04.266Z,79
2017-05-31T03:42:04.995Z,79
2017-05-31T03:43:05.722Z,79
2017-05-31T03:44:06.701Z,79
2017-05-31T03:45:07.429Z,79
2017-05-31T03:46:08.155Z,79
2017-05-31T03:47:08.884Z,79
2017-05-31T03:48:09.635Z,79
2017-05-31T03:49:10.614Z,79
2017-05-31T03:50:11.342Z,79
2017-05-31T03:51:12.071Z,79
2017-05-31T03:52:12.798Z,79
2017-05-31T03:53:13.529Z,79
2017-05-31T03:54:14.504Z,79
2017-05-31T03:55:15.238Z,79
2017-05-31T03:56:15.968Z,79
2017-05-31T03:57:16.694Z,79
2017-05-31T03:58:17.424Z,79
2017-05-31T03:59:18.402Z,79
2017-05-31T04:00:19.155Z,79
2017-05-31T04:01:19.884Z,79
2017-05-31T04:02:20.609Z,80
2017-05-31T04:03:21.340Z,79
2017-05-31T04:04:22.317Z,79
2017-05-31T04:05:23.047Z,79
2017-05-31T04:06:23.774Z,79
2017-05-31T04:07:24.504Z,79
2017-05-31T04:08:25.261Z,79
2017-05-31T04:09:26.268Z,80
2017-05-31T04:10:26.996Z,80
2017-05-31T04:11:27.727Z,80
2017-05-31T04:12:28.456Z,80
2017-05-31T04:13:29.210Z,80
2017-05-31T04:14:30.191Z,80
2017-05-31T04:15:30.918Z,80
2017-05-31T04:16:31.646Z,79
2017-05-31T04:17:32.377Z,80
2017-05-31T04:18:33.109Z,80
2017-05-31T04:19:34.087Z,80
2017-05-31T04:20:34.817Z,80
2017-05-31T04:21:35.543Z,80
2017-05-31T04:22:36.276Z,81
2017-05-31T04:23:37.005Z,80
2017-05-31T04:24:37.987Z,81
2017-05-31T04:25:38.717Z,80
2017-05-31T04:26:39.446Z,80
2017-05-31T04:27:40.179Z,81
2017-05-31T04:28:40.905Z,81
2017-05-31T04:29:41.884Z,81
2017-05-31T04:30:42.611Z,81
2017-05-31T04:31:43.343Z,81
2017-05-31T04:32:44.074Z,81
2017-05-31T04:33:44.806Z,81
2017-05-31T04:34:45.784Z,81
2017-05-31T04:35:46.539Z,81
2017-05-31T04:36:47.272Z,81
2017-05-31T04:37:48.001Z,81
2017-05-31T04:38:48.734Z,81
2017-05-31T04:39:49.713Z,81
2017-05-31T04:40:50.445Z,81
2017-05-31T04:41:51.184Z,81
2017-05-31T04:42:51.904Z,81
2017-05-31T04:43:52.636Z,81
2017-05-31T04:44:53.617Z,81
2017-05-31T04:45:54.346Z,81
2017-05-31T04:46:55.075Z,81
2017-05-31T04:47:55.805Z,81
2017-05-31T04:48:56.534Z,81
2017-05-31T04:49:57.516Z,81
2017-05-31T04:50:58.247Z,80
2017-05-31T04:51:58.978Z,80
2017-05-31T04:52:59.709Z,80
2017-05-31T04:54:00.439Z,80
2017-05-31T04:55:01.423Z,80
2017-05-31T04:56:02.153Z,80
2017-05-31T04:57:02.885Z,80
2017-05-31T04:58:03.618Z,80
2017-05-31T04:59:04.349Z,79
2017-05-31T05:00:05.330Z,80
2017-05-31T05:01:06.061Z,80
2017-05-31T05:02:06.793Z,80
2017-05-31T05:03:07.527Z,79
2017-05-31T05:04:08.259Z,79
2017-05-31T05:05:09.240Z,79
2017-05-31T05:06:09.976Z,79
2017-05-31T05:07:10.708Z,79
2017-05-31T05:08:11.466Z,78
2017-05-31T05:09:12.199Z,78
2017-05-31T05:10:13.184Z,78
2017-05-31T05:11:13.912Z,78
2017-05-31T05:12:14.646Z,78
2017-05-31T05:13:15.406Z,78
2017-05-31T05:14:16.140Z,78
2017-05-31T05:15:17.134Z,79
2017-05-31T05:16:17.854Z,78
2017-05-31T05:17:18.588Z,78
2017-05-31T05:18:19.321Z,79
2017-05-31T05:19:20.052Z,79
2017-05-31T05:20:21.035Z,79
2017-05-31T05:21:21.767Z,78
2017-05-31T05:22:22.499Z,79
2017-05-31T05:23:23.258Z,78
2017-05-31T05:24:23.993Z,79
2017-05-31T05:25:24.973Z,78
2017-05-31T05:26:25.822Z,78
2017-05-31T05:27:26.580Z,78
2017-05-31T05:28:27.313Z,78
2017-05-31T05:29:28.045Z,78
2017-05-31T05:30:29.027Z,78
2017-05-31T05:31:29.790Z,76
2017-05-31T05:32:30.517Z,77
2017-05-31T05:33:31.252Z,77
2017-05-31T05:34:31.987Z,77
2017-05-31T05:35:32.971Z,76
2017-05-31T05:36:33.703Z,76
2017-05-31T05:37:34.433Z,76
2017-05-31T05:38:35.166Z,76
2017-05-31T05:39:35.898Z,76
2017-05-31T05:40:36.879Z,76
2017-05-31T05:41:37.615Z,76
2017-05-31T05:42:38.347Z,76
2017-05-31T05:43:39.083Z,76
2017-05-31T05:44:39.814Z,77
2017-05-31T05:45:40.799Z,76
2017-05-31T05:46:41.533Z,77
2017-05-31T05:47:42.289Z,77
2017-05-31T05:48:43.026Z,77
2017-05-31T05:49:43.786Z,77
2017-05-31T05:50:44.769Z,77
2017-05-31T05:51:45.503Z,78
2017-05-31T05:52:46.234Z,78
2017-05-31T05:53:46.970Z,77
2017-05-31T05:54:47.727Z,77
2017-05-31T05:55:48.712Z,77
2017-05-31T05:56:49.444Z,77
2017-05-31T05:57:50.202Z,77
2017-05-31T05:58:50.939Z,76
2017-05-31T05:59:51.673Z,76
2017-05-31T06:00:52.660Z,77
2017-05-31T06:01:53.390Z,76
2017-05-31T06:02:54.124Z,76
2017-05-31T06:03:54.858Z,76
2017-05-31T06:04:55.593Z,76
2017-05-31T06:05:56.575Z,76
2017-05-31T06:06:57.330Z,76
2017-05-31T06:07:58.067Z,75
2017-05-31T06:08:58.806Z,76
2017-05-31T06:09:59.531Z,75
2017-05-31T06:11:00.515Z,75
2017-05-31T06:12:01.246Z,75
2017-05-31T06:13:01.983Z,75
2017-05-31T06:14:02.714Z,75
2017-05-31T06:15:03.446Z,75
2017-05-31T06:16:04.433Z,75
2017-05-31T06:17:05.164Z,75
2017-05-31T06:18:05.900Z,75
2017-05-31T06:19:06.628Z,75
2017-05-31T06:20:07.361Z,75
2017-05-31T06:21:08.347Z,74
2017-05-31T06:22:09.110Z,75
2017-05-31T06:23:09.835Z,74
2017-05-31T06:24:10.568Z,73
2017-05-31T06:25:11.302Z,74
2017-05-31T06:26:12.289Z,74
2017-05-31T06:27:13.018Z,74
2017-05-31T06:28:13.753Z,73
2017-05-31T06:29:14.486Z,73
2017-05-31T06:30:15.218Z,74
2017-05-31T06:31:16.202Z,73
2017-05-31T06:32:16.939Z,73
2017-05-31T06:33:17.670Z,72
2017-05-31T06:34:18.406Z,72
2017-05-31T06:35:19.140Z,72
2017-05-31T06:36:20.124Z,73
2017-05-31T06:37:20.858Z,72
2017-05-31T06:38:21.589Z,72
2017-05-31T06:39:22.324Z,72
2017-05-31T06:40:23.058Z,72
2017-05-31T06:41:24.045Z,72
2017-05-31T06:42:24.802Z,71
2017-05-31T06:43:25.536Z,72
2017-05-31T06:44:26.269Z,72
2017-05-31T06:45:27.005Z,72
2017-05-31T06:46:27.990Z,71
2017-05-31T06:47:28.722Z,72
2017-05-31T06:48:29.457Z,70
2017-05-31T06:49:30.192Z,70
2017-05-31T06:50:30.926Z,71
2017-05-31T06:51:31.910Z,71
2017-05-31T06:52:32.642Z,71
2017-05-31T06:53:33.375Z,71
2017-05-31T06:54:34.112Z,70
2017-05-31T06:55:34.846Z,71
2017-05-31T06:56:35.829Z,71
2017-05-31T06:57:36.562Z,71
2017-05-31T06:58:37.295Z,71
2017-05-31T06:59:38.026Z,70
2017-05-31T07:00:38.759Z,70
2017-05-31T07:01:39.746Z,69
2017-05-31T07:02:40.479Z,69
2017-05-31T07:03:41.239Z,69
2017-05-31T07:04:41.974Z,70
2017-05-31T07:05:42.708Z,70
2017-05-31T07:06:43.695Z,70
2017-05-31T07:07:44.430Z,70
2017-05-31T07:08:45.161Z,71
2017-05-31T07:09:45.893Z,70
2017-05-31T07:10:46.627Z,69
2017-05-31T07:11:47.613Z,68
2017-05-31T07:12:48.346Z,69
2017-05-31T07:13:49.082Z,70
2017-05-31T07:14:49.841Z,68
2017-05-31T07:15:50.578Z,68
2017-05-31T07:16:51.563Z,68
2017-05-31T07:17:52.295Z,68
2017-05-31T07:18:53.032Z,68
2017-05-31T07:19:53.768Z,68
2017-05-31T07:20:54.530Z,68
2017-05-31T07:21:55.514Z,68
2017-05-31T07:22:56.246Z,68
2017-05-31T07:23:56.980Z,68
2017-05-31T07:24:57.715Z,67
2017-05-31T07:25:58.452Z,66
2017-05-31T07:26:59.434Z,67
2017-05-31T07:28:00.174Z,67
2017-05-31T07:29:00.909Z,67
2017-05-31T07:30:01.641Z,68
2017-05-31T07:31:02.374Z,68
2017-05-31T07:32:03.358Z,67
2017-05-31T07:33:04.096Z,67
2017-05-31T07:34:04.852Z,66
2017-05-31T07:35:05.586Z,65
2017-05-31T07:36:06.323Z,66
2017-05-31T07:37:07.308Z,65
2017-05-31T07:38:08.045Z,66
2017-05-31T07:39:08.808Z,65
2017-05-31T07:40:09.542Z,65
2017-05-31T07:41:10.281Z,65
2017-05-31T07:42:11.272Z,65
2017-05-31T07:43:12.013Z,64
2017-05-31T07:44:12.751Z,64
2017-05-31T07:45:13.515Z,65
2017-05-31T07:46:14.255Z,65
2017-05-31T07:47:15.250Z,63
2017-05-31T07:48:16.025Z,61
2017-05-31T07:49:16.784Z,61
2017-05-31T07:50:17.551Z,61
2017-05-31T07:51:18.296Z,60
2017-05-31T07:52:19.319Z,59
2017-05-31T07:53:20.066Z,59
2017-05-31T07:54:20.811Z,60
2017-05-31T07:55:21.557Z,61
2017-05-31T07:56:22.304Z,61
2017-05-31T07:57:23.302Z,61
2017-05-31T07:58:24.048Z,60
2017-05-31T07:59:24.799Z,60
2017-05-31T08:00:25.548Z,58
2017-05-31T08:01:26.296Z,58
2017-05-31T08:02:27.292Z,57
2017-05-31T08:03:28.035Z,55
2017-05-31T08:04:28.782Z,56
2017-05-31T08:05:29.528Z,55
2017-05-31T08:06:30.275Z,55
2017-05-31T08:07:31.271Z,57
2017-05-31T08:08:32.018Z,58
2017-05-31T08:09:32.762Z,57
2017-05-31T08:10:33.507Z,56
2017-05-31T08:11:34.253Z,56
2017-05-31T08:12:35.247Z,54
2017-05-31T08:13:35.996Z,54
2017-05-31T08:14:36.741Z,53
2017-05-31T08:15:37.487Z,53
2017-05-31T08:16:38.229Z,51
2017-05-31T08:17:39.227Z,52
2017-05-31T08:18:39.968Z,54
2017-05-31T08:19:40.712Z,55
2017-05-31T08:20:41.456Z,56
2017-05-31T08:21:42.224Z,56
2017-05-31T08:22:43.215Z,57
2017-05-31T08:23:43.958Z,57
2017-05-31T08:24:44.702Z,58
2017-05-31T08:25:45.447Z,55
2017-05-31T08:26:46.191Z,56
2017-05-31T08:27:47.183Z,56
2017-05-31T08:28:47.924Z,55
2017-05-31T08:29:48.666Z,54
2017-05-31T08:30:49.413Z,53
2017-05-31T08:31:50.160Z,53
2017-05-31T08:32:51.156Z,52
2017-05-31T08:33:51.898Z,52
2017-05-31T08:34:52.641Z,53
2017-05-31T08:35:53.383Z,53
2017-05-31T08:36:54.149Z,54
2017-05-31T08:37:55.144Z,54
2017-05-31T08:38:55.889Z,54
2017-05-31T08:39:56.637Z,54
2017-05-31T08:40:57.380Z,55
2017-05-31T08:41:58.126Z,54
2017-05-31T08:42:59.121Z,52
2017-05-31T08:43:59.866Z,52
2017-05-31T08:45:00.615Z,49
2017-05-31T08:46:01.357Z,48
2017-05-31T08:47:02.100Z,48
2017-05-31T08:48:03.097Z,49
2017-05-31T08:49:03.839Z,50
2017-05-31T08:50:04.584Z,51
2017-05-31T08:51:05.325Z,51
2017-05-31T08:52:06.069Z,50
2017-05-31T08:53:07.063Z,51
2017-05-31T08:54:07.810Z,51
2017-05-31T08:55:08.558Z,51
2017-05-31T08:56:09.298Z,52
2017-05-31T08:57:10.041Z,50
2017-05-31T08:58:11.037Z,50
2017-05-31T08:59:11.801Z,50
2017-05-31T09:00:12.547Z,51
2017-05-31T09:01:13.290Z,50
2017-05-31T09:02:14.034Z,48
2017-05-31T09:03:15.030Z,48
2017-05-31T09:04:15.774Z,49
2017-05-31T09:05:16.512Z,49
2017-05-31T09:06:17.255Z,48
2017-05-31T09:07:17.999Z,48
2017-05-31T09:08:18.994Z,48
2017-05-31T09:09:19.734Z,49
2017-05-31T09:10:20.477Z,49
2017-05-31T09:11:21.217Z,49
2017-05-31T09:12:21.956Z,50
2017-05-31T09:13:22.946Z,50
2017-05-31T09:14:23.688Z,51
2017-05-31T09:15:24.431Z,51
2017-05-31T09:16:25.177Z,52
2017-05-31T09:17:25.921Z,53
2017-05-31T09:18:26.911Z,54
2017-05-31T09:19:27.651Z,54
2017-05-31T09:20:28.394Z,53
2017-05-31T09:21:29.140Z,55
2017-05-31T09:22:29.884Z,53
2017-05-31T09:23:30.878Z,52
2017-05-31T09:24:31.624Z,52
2017-05-31T09:25:32.365Z,51
2017-05-31T09:26:33.106Z,50
2017-05-31T09:27:33.851Z,49
2017-05-31T09:28:34.844Z,49
2017-05-31T09:29:35.587Z,50
2017-05-31T09:30:36.359Z,50
2017-05-31T09:31:37.104Z,50
2017-05-31T09:32:37.849Z,50
2017-05-31T09:33:38.838Z,49
2017-05-31T09:34:39.583Z,48
2017-05-31T09:35:40.325Z,47
2017-05-31T09:36:41.093Z,47
2017-05-31T09:37:41.863Z,46
2017-05-31T09:38:42.859Z,46
2017-05-31T09:39:43.621Z,46
2017-05-31T09:40:44.365Z,48
2017-05-31T09:41:45.105Z,49
2017-05-31T09:42:45.848Z,48
2017-05-31T09:43:46.840Z,48
2017-05-31T09:44:47.584Z,48
2017-05-31T09:45:48.331Z,47
2017-05-31T09:46:49.072Z,46
2017-05-31T09:47:49.814Z,46
2017-05-31T09:48:50.813Z,46
2017-05-31T09:49:51.556Z,45
2017-05-31T09:50:52.305Z,44
2017-05-31T09:51:53.049Z,42
2017-05-31T09:52:53.822Z,42
2017-05-31T09:53:54.819Z,40
2017-05-31T09:54:55.567Z,42
2017-05-31T09:55:56.312Z,42
2017-05-31T09:56:57.061Z,44
2017-05-31T09:57:57.805Z,46
2017-05-31T09:58:58.799Z,47
2017-05-31T09:59:59.544Z,46
2017-05-31T10:01:00.291Z,46
2017-05-31T10:02:01.059Z,46
2017-05-31T10:03:01.802Z,45
2017-05-31T10:04:02.798Z,44
2017-05-31T10:05:03.544Z,44
2017-05-31T10:06:04.287Z,43
2017-05-31T10:07:05.034Z,43
2017-05-31T10:08:05.774Z,43
2017-05-31T10:09:06.766Z,44
2017-05-31T10:10:07.509Z,44
2017-05-31T10:11:08.249Z,44
2017-05-31T10:12:08.994Z,45
2017-05-31T10:13:09.736Z,46
2017-05-31T10:14:10.725Z,46
2017-05-31T10:15:11.468Z,45
2017-05-31T10:16:12.213Z,45
2017-05-31T10:17:12.958Z,45
2017-05-31T10:18:13.695Z,45
2017-05-31T10:19:14.686Z,44
2017-05-31T10:20:15.431Z,44
2017-05-31T10:21:16.170Z,46
2017-05-31T10:22:16.914Z,46
2017-05-31T10:23:17.655Z,48
2017-05-31T10:24:18.648Z,47
2017-05-31T10:25:19.390Z,48
2017-05-31T10:26:20.133Z,47
2017-05-31T10:27:20.878Z,46
2017-05-31T10:28:21.620Z,46
2017-05-31T10:29:22.618Z,46
2017-05-31T10:30:23.362Z,46
2017-05-31T10:31:24.106Z,46
2017-05-31T10:32:24.849Z,46
2017-05-31T10:33:25.597Z,45
2017-05-31T10:34:26.591Z,45
2017-05-31T10:35:27.342Z,43
2017-05-31T10:36:28.085Z,42
2017-05-31T10:37:28.831Z,41
2017-05-31T10:38:29.578Z,40
2017-05-31T10:39:30.574Z,40
2017-05-31T10:40:31.321Z,39
2017-05-31T10:41:32.065Z,38
2017-05-31T10:42:32.814Z,37
2017-05-31T10:43:33.559Z,38
2017-05-31T10:44:34.580Z,40
2017-05-31T10:45:35.320Z,40
2017-05-31T10:46:36.065Z,40
2017-05-31T10:47:36.806Z,42
2017-05-31T10:48:37.575Z,42
2017-05-31T10:49:38.565Z,44
2017-05-31T10:50:39.309Z,44
2017-05-31T10:51:40.071Z,44
2017-05-31T10:52:40.815Z,45
2017-05-31T10:53:41.554Z,45
2017-05-31T10:54:42.543Z,45
2017-05-31T10:55:43.286Z,46
2017-05-31T10:56:44.026Z,46
2017-05-31T10:57:44.766Z,46
2017-05-31T10:58:45.512Z,46
2017-05-31T10:59:46.497Z,47
2017-05-31T11:00:47.238Z,48
2017-05-31T11:01:47.976Z,48
2017-05-31T11:02:48.716Z,47
2017-05-31T11:03:49.481Z,46
2017-05-31T11:04:50.474Z,46
2017-05-31T11:05:51.216Z,48
2017-05-31T11:06:51.957Z,46
2017-05-31T11:07:52.699Z,45
2017-05-31T11:08:53.448Z,43
2017-05-31T11:09:54.438Z,41
2017-05-31T11:10:55.185Z,41
2017-05-31T11:11:55.955Z,41
2017-05-31T11:12:56.729Z,39
2017-05-31T11:13:57.473Z,39
2017-05-31T11:14:58.472Z,40
2017-05-31T11:15:59.221Z,40
2017-05-31T11:16:59.969Z,41
2017-05-31T11:18:00.718Z,41
2017-05-31T11:19:01.476Z,40
2017-05-31T11:20:02.489Z,38
2017-05-31T11:21:03.240Z,37
2017-05-31T11:22:03.991Z,37
2017-05-31T11:23:04.744Z,37
2017-05-31T11:24:05.504Z,36
2017-05-31T11:25:06.513Z,35
2017-05-31T11:26:07.272Z,35
2017-05-31T11:27:08.027Z,36
2017-05-31T11:28:08.806Z,36
2017-05-31T11:29:09.585Z,34
2017-05-31T11:30:10.589Z,34
2017-05-31T11:31:11.345Z,35
2017-05-31T11:32:12.098Z,36
2017-05-31T11:33:12.851Z,36
2017-05-31T11:34:13.606Z,36
2017-05-31T11:35:14.609Z,36
2017-05-31T11:36:15.366Z,36
2017-05-31T11:37:16.124Z,36
2017-05-31T11:38:16.874Z,37
2017-05-31T11:39:17.626Z,38
2017-05-31T11:40:18.629Z,38
2017-05-31T11:41:19.376Z,38
2017-05-31T11:42:20.120Z,39
2017-05-31T11:43:20.891Z,39
2017-05-31T11:44:21.634Z,39
2017-05-31T11:45:22.635Z,38
2017-05-31T11:46:23.382Z,37
2017-05-31T11:47:24.137Z,37
2017-05-31T11:48:24.878Z,36
2017-05-31T11:49:25.619Z,36
2017-05-31T11:50:26.613Z,36
2017-05-31T11:51:27.356Z,36
2017-05-31T11:52:28.098Z,36
2017-05-31T11:53:28.843Z,36
2017-05-31T11:54:29.614Z,35
2017-05-31T11:55:30.610Z,35
2017-05-31T11:56:31.353Z,36
2017-05-31T11:57:32.121Z,35
2017-05-31T11:58:32.865Z,34
2017-05-31T11:59:33.637Z,34
2017-05-31T12:00:34.629Z,35
2017-05-31T12:01:35.375Z,38
2017-05-31T12:02:36.115Z,37
2017-05-31T12:03:36.859Z,38
2017-05-31T12:04:37.656Z,37
2017-05-31T12:05:38.593Z,37
2017-05-31T12:06:39.333Z,38
2017-05-31T12:07:40.101Z,37
2017-05-31T12:08:40.841Z,38
2017-05-31T12:09:41.638Z,39
2017-05-31T12:10:42.571Z,40
2017-05-31T12:11:43.311Z,41
2017-05-31T12:12:44.049Z,42
2017-05-31T12:13:44.792Z,42
2017-05-31T12:14:45.534Z,42
2017-05-31T12:15:46.520Z,42
2017-05-31T12:16:47.261Z,42
2017-05-31T12:17:48.025Z,42
2017-05-31T12:18:48.790Z,43
2017-05-31T12:19:49.556Z,43
2017-05-31T12:20:50.544Z,44
2017-05-31T12:21:51.284Z,44
2017-05-31T12:22:52.020Z,44
2017-05-31T12:23:52.756Z,44
2017-05-31T12:24:53.497Z,44
2017-05-31T12:25:54.483Z,45
2017-05-31T12:26:55.220Z,45
2017-05-31T12:27:55.956Z,45
2017-05-31T12:28:56.695Z,45
2017-05-31T12:29:57.437Z,45
2017-05-31T12:30:58.425Z,45
2017-05-31T12:31:59.165Z,45
2017-05-31T12:32:59.905Z,45
2017-05-31T12:34:00.643Z,46
2017-05-31T12:35:01.384Z,46
2017-05-31T12:36:02.373Z,46
2017-05-31T12:37:03.135Z,46
2017-05-31T12:38:03.871Z,46
2017-05-31T12:39:04.613Z,47
2017-05-31T12:40:05.348Z,47
2017-05-31T12:41:06.335Z,47
2017-05-31T12:42:07.069Z,47
2017-05-31T12:43:07.804Z,47
2017-05-31T12:44:08.570Z,47
2017-05-31T12:45:09.310Z,48
2017-05-31T12:46:10.294Z,48
2017-05-31T12:47:11.032Z,48
2017-05-31T12:48:11.768Z,48
2017-05-31T12:49:12.506Z,48
2017-05-31T12:50:13.242Z,48
2017-05-31T12:51:14.226Z,48
2017-05-31T12:52:14.988Z,48
2017-05-31T12:53:15.721Z,49
2017-05-31T12:54:16.458Z,48
2017-05-31T12:55:17.193Z,49
2017-05-31T12:56:18.181Z,49
2017-05-31T12:57:18.919Z,49
2017-05-31T12:58:19.654Z,49
2017-05-31T12:59:20.391Z,49
2017-05-31T13:00:21.132Z,50
2017-05-31T13:01:22.143Z,50
2017-05-31T13:02:22.878Z,50
2017-05-31T13:03:23.614Z,50
2017-05-31T13:04:24.349Z,49
2017-05-31T13:05:25.083Z,50
2017-05-31T13:06:26.073Z,49
2017-05-31T13:07:26.806Z,50
2017-05-31T13:08:27.544Z,50
2017-05-31T13:09:28.279Z,49
2017-05-31T13:10:29.015Z,48
2017-05-31T13:11:30.006Z,49
2017-05-31T13:12:30.746Z,49
2017-05-31T13:13:31.487Z,49
2017-05-31T13:14:32.224Z,48
2017-05-31T13:15:32.962Z,48
2017-05-31T13:16:33.955Z,48
2017-05-31T13:17:34.691Z,48
2017-05-31T13:18:35.432Z,47
2017-05-31T13:19:36.176Z,47
2017-05-31T13:20:36.919Z,47
2017-05-31T13:21:37.913Z,47
2017-05-31T13:22:38.654Z,47
2017-05-31T13:23:39.405Z,47
2017-05-31T13:24:40.138Z,47
2017-05-31T13:25:40.880Z,47
2017-05-31T13:26:41.870Z,46
2017-05-31T13:27:42.612Z,46
2017-05-31T13:28:43.354Z,46
2017-05-31T13:29:44.096Z,46
2017-05-31T13:30:44.836Z,46
2017-05-31T13:31:45.829Z,46
2017-05-31T13:32:46.594Z,46
2017-05-31T13:33:47.334Z,46
2017-05-31T13:34:48.077Z,46
2017-05-31T13:35:48.820Z,46
2017-05-31T13:36:49.805Z,46
2017-05-31T13:37:50.544Z,47
2017-05-31T13:38:51.286Z,48
2017-05-31T13:39:52.027Z,48
2017-05-31T13:40:52.762Z,48
2017-05-31T13:41:53.753Z,49
2017-05-31T13:42:54.489Z,48
2017-05-31T13:43:55.231Z,49
2017-05-31T13:44:55.968Z,49
2017-05-31T13:45:56.704Z,49
2017-05-31T13:46:57.691Z,49
2017-05-31T13:47:58.424Z,49
2017-05-31T13:48:59.161Z,49
2017-05-31T13:49:59.898Z,49
2017-05-31T13:51:00.633Z,50
2017-05-31T13:52:01.618Z,49
2017-05-31T13:53:02.354Z,49
2017-05-31T13:54:03.093Z,49
2017-05-31T13:55:03.854Z,48
2017-05-31T13:56:04.593Z,49
2017-05-31T13:57:05.576Z,49
2017-05-31T13:58:06.337Z,50
2017-05-31T13:59:07.067Z,50
2017-05-31T14:00:07.803Z,49
2017-05-31T14:01:08.541Z,49
2017-05-31T14:02:09.554Z,50
2017-05-31T14:03:10.291Z,49
2017-05-31T14:04:11.030Z,49
2017-05-31T14:05:11.764Z,50
2017-05-31T14:06:12.500Z,49
2017-05-31T14:07:13.489Z,49
2017-05-31T14:08:14.220Z,49
2017-05-31T14:09:14.983Z,49
2017-05-31T14:10:15.714Z,48
2017-05-31T14:11:16.453Z,49
2017-05-31T14:12:17.435Z,48
2017-05-31T14:13:18.168Z,48
2017-05-31T14:14:18.905Z,48
2017-05-31T14:15:19.636Z,49
2017-05-31T14:16:20.373Z,49
2017-05-31T14:17:21.358Z,49
2017-05-31T14:18:22.092Z,49
2017-05-31T14:19:22.831Z,48
2017-05-31T14:20:23.567Z,48
2017-05-31T14:21:24.302Z,49
2017-05-31T14:22:25.289Z,48
2017-05-31T14:23:26.030Z,48
2017-05-31T14:24:26.761Z,49
2017-05-31T14:25:27.493Z,49
2017-05-31T14:26:28.232Z,48
2017-05-31T14:27:29.218Z,48